Time;durP1;ratioP1;P1;durP2;ratioP2;P2;SDS_P1;SDS_P2;PMS_P1;PMS_P2;Temp;Humidity;BMP_temperature;BMP_pressure;BME280_temperature;BME280_humidity;BME280_pressure;Samples;Min_cycle;Max_cycle;Signal;HPM_P1;HPM_P2
2021/09/11 00:00:30;;;;;;;;;;;;;;;14.94;59.09;98316.11;1562095;90;20306;-85
2021/09/11 00:02:58;;;;;;;;;;;;;;;14.94;59.16;98320.55;1585641;90;20767;-86
2021/09/11 00:05:42;;;;;;;;;;;;;;;14.93;59.21;98312.28;1582808;89;20268;-86
2021/09/11 00:08:08;;;;;;;;;;;;;;;14.87;59.24;98314.15;1587461;89;26866;-86
2021/09/11 00:10:34;;;;;;;;;;;;;;;14.85;59.31;98314.76;1589253;89;24514;-86
2021/09/11 00:13:00;;;;;;;;;;;;;;;14.83;59.34;98312.77;1587579;89;20778;-85
2021/09/11 00:15:31;;;;;;;;;;;;;;;14.81;59.35;98314.21;1585962;89;20801;-86
2021/09/11 00:17:56;;;;;;;;;;;;;;;14.79;59.40;98303.45;1590459;90;22658;-86
2021/09/11 00:20:22;;;;;;;;;;;;;;;14.81;59.47;98306.30;1585811;89;26051;-86
2021/09/11 00:22:50;;;;;;;;;;;;;;;14.82;59.55;98310.61;1588724;90;20868;-86
2021/09/11 00:25:17;;;;;;;;;;;;;;;14.82;59.57;98309.30;1587279;89;20304;-86
2021/09/11 00:27:43;;;;;;;;;;;;;;;14.78;59.62;98311.02;1588198;89;24810;-86
2021/09/11 00:30:10;;;;;;;;;;;;;;;14.76;59.67;98303.73;1589603;89;21970;-86
2021/09/11 00:32:35;;;;;;;;;;;;;;;14.75;59.70;98303.38;1586944;89;26037;-86
2021/09/11 00:35:08;;;;;;;;;;;;;;;14.74;59.73;98297.75;1588896;89;25234;-85
2021/09/11 00:37:34;;;;;;;;;;;;;;;14.73;59.76;98299.55;1586602;89;20252;-86
2021/09/11 00:40:00;;;;;;;;;;;;;;;14.72;59.81;98303.66;1589160;90;20256;-85
2021/09/11 00:42:26;;;;;;;;;;;;;;;14.70;59.87;98304.27;1583502;89;20259;-86
2021/09/11 00:44:58;;;;;;;;;;;;;;;14.70;59.91;98300.32;1583681;89;21085;-86
2021/09/11 00:47:24;;;;;;;;;;;;;;;14.67;59.94;98294.86;1588715;89;24636;-86
2021/09/11 00:49:50;;;;;;;;;;;;;;;14.64;59.99;98300.38;1587593;89;20234;-85
2021/09/11 00:52:15;;;;;;;;;;;;;;;14.62;60.05;98296.55;1589314;89;20373;-86
2021/09/11 00:54:42;;;;;;;;;;;;;;;14.60;60.09;98297.20;1592477;89;22002;-86
2021/09/11 00:57:07;;;;;;;;;;;;;;;14.59;60.14;98298.16;1585830;89;21053;-85
2021/09/11 00:59:34;;;;;;;;;;;;;;;14.59;60.20;98299.47;1588971;89;24502;-85
2021/09/11 01:02:00;;;;;;;;;;;;;;;14.57;60.23;98298.77;1589336;89;20283;-86
2021/09/11 01:04:32;;;;;;;;;;;;;;;14.54;60.28;98302.16;1581676;89;20799;-86
2021/09/11 01:09:45;;;;;;;;;;;;;;;14.51;60.41;98299.30;1573124;90;26066;-86
2021/09/11 01:12:17;;;;;;;;;;;;;;;14.51;60.45;98301.13;1566713;90;24577;-86
2021/09/11 01:14:43;;;;;;;;;;;;;;;14.48;60.48;98304.85;1594012;88;20316;-86
2021/09/11 01:17:18;;;;;;;;;;;;;;;14.51;60.52;98305.89;1594060;89;20253;-86
2021/09/11 01:19:53;;;;;;;;;;;;;;;14.51;60.57;98307.20;1572927;89;22202;-86
2021/09/11 01:22:25;;;;;;;;;;;;;;;14.51;60.62;98307.20;1573918;89;26723;-85
2021/09/11 01:24:55;;;;;;;;;;;;;;;14.52;60.67;98306.23;1573129;89;24514;-85
2021/09/11 01:27:23;;;;;;;;;;;;;;;14.51;60.74;98306.40;1582203;89;20547;-85
2021/09/11 01:29:53;;;;;;;;;;;;;;;14.52;60.79;98306.23;1586532;89;24924;-85
2021/09/11 01:32:19;;;;;;;;;;;;;;;14.48;60.81;98303.53;1596482;89;22008;-86
2021/09/11 01:34:45;;;;;;;;;;;;;;;14.46;60.88;98302.83;1585803;89;21104;-86
2021/09/11 01:37:18;;;;;;;;;;;;;;;14.46;60.94;98305.45;1583413;89;24802;-86
2021/09/11 01:39:47;;;;;;;;;;;;;;;14.45;60.99;98305.14;1587180;89;20222;-86
2021/09/11 01:42:19;;;;;;;;;;;;;;;14.42;61.01;98307.19;1582712;88;24933;-86
2021/09/11 01:44:50;;;;;;;;;;;;;;;14.37;61.07;98302.33;1563194;90;22754;-86
2021/09/11 01:47:23;;;;;;;;;;;;;;;14.35;61.11;98302.90;1572791;90;26017;-86
2021/09/11 01:49:50;;;;;;;;;;;;;;;14.37;61.14;98302.33;1574066;89;24516;-86
2021/09/11 01:52:25;;;;;;;;;;;;;;;14.37;61.17;98306.27;1562969;90;20256;-85
2021/09/11 01:54:51;;;;;;;;;;;;;;;14.39;61.22;98307.47;1589093;89;24808;-84
2021/09/11 01:57:17;;;;;;;;;;;;;;;14.39;61.26;98308.30;1569105;89;20313;-86
2021/09/11 01:59:44;;;;;;;;;;;;;;;14.40;61.31;98305.19;1595452;89;21118;-85
2021/09/11 02:02:10;;;;;;;;;;;;;;;14.40;61.35;98312.58;1575377;89;24505;-86
2021/09/11 02:04:37;;;;;;;;;;;;;;;14.41;61.38;98310.77;1576764;89;20196;-86
2021/09/11 02:07:04;;;;;;;;;;;;;;;14.40;61.40;98309.14;1588543;89;24932;-85
2021/09/11 02:09:31;;;;;;;;;;;;;;;14.39;61.40;98310.94;1584491;89;21969;-86
2021/09/11 02:12:03;;;;;;;;;;;;;;;14.43;61.44;98314.95;1586936;89;25974;-86
2021/09/11 02:14:38;;;;;;;;;;;;;;;14.45;61.45;98307.77;1587677;89;24588;-86
2021/09/11 02:17:04;;;;;;;;;;;;;;;14.44;61.48;98308.73;1598850;89;20184;-86
2021/09/11 02:19:31;;;;;;;;;;;;;;;14.45;61.46;98301.66;1573047;90;24980;-85
2021/09/11 02:21:57;;;;;;;;;;;;;;;14.49;61.47;98306.52;1600071;89;22234;-86
2021/09/11 02:24:23;;;;;;;;;;;;;;;14.51;61.50;98305.89;1574393;90;21038;-86
2021/09/11 02:26:49;;;;;;;;;;;;;;;14.52;61.50;98304.92;1600438;89;20281;-86
2021/09/11 02:29:15;;;;;;;;;;;;;;;14.54;61.47;98304.80;1572884;90;20502;-86
2021/09/11 02:31:42;;;;;;;;;;;;;;;14.54;61.49;98299.05;1599435;88;24402;-86
2021/09/11 02:34:08;;;;;;;;;;;;;;;14.54;61.49;98300.84;1573037;90;22144;-86
2021/09/11 02:36:34;;;;;;;;;;;;;;;14.51;61.50;98301.13;1601107;88;20956;-86
2021/09/11 02:39:00;;;;;;;;;;;;;;;14.49;61.50;98297.79;1574371;89;20351;-86
2021/09/11 02:41:26;;;;;;;;;;;;;;;14.49;61.50;98303.89;1600774;89;20295;-85
2021/09/11 02:43:52;;;;;;;;;;;;;;;14.48;61.51;98298.75;1575158;89;24811;-86
2021/09/11 02:46:18;;;;;;;;;;;;;;;14.44;61.53;98299.52;1599156;89;20920;-85
2021/09/11 02:48:50;;;;;;;;;;;;;;;14.44;61.51;98299.52;1567566;91;20959;-85
2021/09/11 02:51:16;;;;;;;;;;;;;;;14.43;61.52;98301.79;1576089;89;24614;-86
2021/09/11 02:53:42;;;;;;;;;;;;;;;14.41;61.51;98294.98;1598986;88;20290;-85
2021/09/11 02:56:08;;;;;;;;;;;;;;;14.41;61.50;98298.92;1598385;88;20815;-84
2021/09/11 02:58:34;;;;;;;;;;;;;;;14.40;61.51;98299.92;1600681;88;20876;-84
2021/09/11 03:01:00;;;;;;;;;;;;;;;14.40;61.53;98296.78;1564243;90;20916;-84
2021/09/11 03:03:26;;;;;;;;;;;;;;;14.42;61.55;98293.53;1602617;88;20257;-85
2021/09/11 03:05:53;;;;;;;;;;;;;;;14.43;61.54;98293.05;1572012;91;20282;-86
2021/09/11 03:08:19;;;;;;;;;;;;;;;14.45;61.57;98291.97;1600676;88;24787;-85
2021/09/11 03:10:45;;;;;;;;;;;;;;;14.45;61.56;98296.40;1574645;90;20980;-86
2021/09/11 03:13:12;;;;;;;;;;;;;;;14.44;61.58;98300.83;1599702;88;26102;-86
2021/09/11 03:15:38;;;;;;;;;;;;;;;14.44;61.58;98292.09;1574827;90;24423;-85
2021/09/11 03:18:04;;;;;;;;;;;;;;;14.42;61.58;98294.02;1601009;88;20574;-86
2021/09/11 03:20:30;;;;;;;;;;;;;;;14.42;61.56;98294.86;1582829;89;20345;-85
2021/09/11 03:22:56;;;;;;;;;;;;;;;14.39;61.53;98295.14;1599513;88;21981;-85
2021/09/11 03:25:23;;;;;;;;;;;;;;;14.39;61.54;98292.98;1582506;89;40459;-86
2021/09/11 03:27:49;;;;;;;;;;;;;;;14.39;61.55;98291.67;1598919;89;24591;-86
2021/09/11 03:30:15;;;;;;;;;;;;;;;14.40;61.59;98294.14;1573592;90;20269;-86
2021/09/11 03:32:41;;;;;;;;;;;;;;;14.41;61.60;98293.66;1599769;88;24950;-86
2021/09/11 03:35:08;;;;;;;;;;;;;;;14.38;61.61;98287.36;1573066;90;22039;-85
2021/09/11 03:37:34;;;;;;;;;;;;;;;14.34;61.66;98284.14;1599553;88;26010;-85
2021/09/11 03:40:00;;;;;;;;;;;;;;;14.33;61.66;98283.79;1575598;89;20892;-85
2021/09/11 03:42:26;;;;;;;;;;;;;;;14.32;61.71;98281.28;1599363;89;20299;-86
2021/09/11 03:45:01;;;;;;;;;;;;;;;14.33;61.71;98282.95;1563182;90;24751;-85
2021/09/11 03:47:29;;;;;;;;;;;;;;;14.32;61.70;98282.59;1574636;89;22182;-85
2021/09/11 03:49:55;;;;;;;;;;;;;;;14.31;61.71;98277.81;1600848;88;26071;-86
2021/09/11 03:52:21;;;;;;;;;;;;;;;14.30;61.66;98281.89;1600743;88;20297;-86
2021/09/11 03:54:46;;;;;;;;;;;;;;;14.32;61.63;98280.80;1573427;90;20826;-86
2021/09/11 03:57:12;;;;;;;;;;;;;;;14.34;61.61;98280.20;1584690;89;20269;-86
2021/09/11 03:59:38;;;;;;;;;;;;;;;14.36;61.60;98276.92;1574152;90;21978;-86
2021/09/11 04:02:05;;;;;;;;;;;;;;;14.37;61.56;98279.11;1601467;88;20993;-86
2021/09/11 04:04:31;;;;;;;;;;;;;;;14.38;61.53;98280.78;1572071;90;24103;-86
2021/09/11 04:06:57;;;;;;;;;;;;;;;14.39;61.51;98283.77;1602638;88;20520;-86
2021/09/11 04:09:23;;;;;;;;;;;;;;;14.40;61.50;98286.76;1575645;90;24776;-86
2021/09/11 04:11:48;;;;;;;;;;;;;;;14.41;61.51;98287.08;1601965;88;20404;-86
2021/09/11 04:14:14;;;;;;;;;;;;;;;14.39;61.49;98288.55;1573895;90;21101;-85
2021/09/11 04:16:40;;;;;;;;;;;;;;;14.39;61.43;98287.72;1600096;88;20299;-85
2021/09/11 04:19:06;;;;;;;;;;;;;;;14.40;61.42;98294.14;1575695;90;20271;-86
2021/09/11 04:21:32;;;;;;;;;;;;;;;14.42;61.44;98293.53;1599947;89;24741;-86
2021/09/11 04:23:58;;;;;;;;;;;;;;;14.42;61.40;98288.75;1575270;90;20365;-86
2021/09/11 04:26:37;;;;;;;;;;;;;;;14.44;61.37;98299.52;1601945;88;26035;-86
2021/09/11 04:29:09;;;;;;;;;;;;;;;14.45;61.37;98297.72;1566727;90;25299;-86
2021/09/11 04:31:35;;;;;;;;;;;;;;;14.45;61.35;98302.50;1601720;88;20324;-86
2021/09/11 04:34:01;;;;;;;;;;;;;;;14.44;61.35;98295.56;1575338;90;20795;-86
2021/09/11 04:36:31;;;;;;;;;;;;;;;14.45;61.34;98299.03;1601634;89;21767;-85
2021/09/11 04:38:57;;;;;;;;;;;;;;;14.43;61.34;98296.52;1575057;90;25990;-85
2021/09/11 04:41:23;;;;;;;;;;;;;;;14.44;61.34;98294.73;1601843;89;20863;-85
2021/09/11 04:43:49;;;;;;;;;;;;;;;14.45;61.33;98295.92;1575007;90;20822;-85
2021/09/11 04:46:15;;;;;;;;;;;;;;;14.47;61.35;98296.59;1572183;89;20250;-86
2021/09/11 04:48:41;;;;;;;;;;;;;;;14.51;61.36;98298.50;1590865;89;20278;-85
2021/09/11 04:51:14;;;;;;;;;;;;;;;14.51;61.37;98297.98;1602647;88;20829;-85
2021/09/11 04:53:40;;;;;;;;;;;;;;;14.51;61.39;98297.98;1601018;88;24467;-86
2021/09/11 04:56:06;;;;;;;;;;;;;;;14.55;61.39;98307.30;1602153;88;21024;-86
2021/09/11 04:58:33;;;;;;;;;;;;;;;14.58;61.39;98308.34;1570408;90;20636;-86
2021/09/11 05:00:58;;;;;;;;;;;;;;;14.60;61.42;98306.41;1596939;88;22067;-85
2021/09/11 05:03:24;;;;;;;;;;;;;;;14.64;61.38;98304.33;1573977;91;21500;-86
2021/09/11 05:05:52;;;;;;;;;;;;;;;14.67;61.37;98303.23;1568288;90;24519;-86
2021/09/11 05:08:21;;;;;;;;;;;;;;;14.73;61.38;98306.14;1584345;89;20315;-86
2021/09/11 05:10:48;;;;;;;;;;;;;;;14.75;61.38;98303.38;1584777;89;24750;-86
2021/09/11 05:13:25;;;;;;;;;;;;;;;14.79;61.37;98313.98;1593825;89;20517;-86
2021/09/11 05:16:04;;;;;;;;;;;;;;;14.82;61.37;98311.93;1600129;88;25974;-88
2021/09/11 05:18:32;;;;;;;;;;;;;;;14.86;61.37;98313.80;1601646;88;24553;-88
2021/09/11 05:21:05;;;;;;;;;;;;;;;14.88;61.33;98319.29;1576401;89;20292;-85
2021/09/11 05:23:31;;;;;;;;;;;;;;;14.92;61.37;98315.89;1598211;88;24813;-86
2021/09/11 05:26:02;;;;;;;;;;;;;;;14.94;61.32;98314.80;1573102;90;21928;-86
2021/09/11 05:28:35;;;;;;;;;;;;;;;14.95;61.31;98318.23;1599538;88;26740;-86
2021/09/11 05:31:01;;;;;;;;;;;;;;;15.01;61.33;98315.05;1573114;89;24446;-86
2021/09/11 05:33:27;;;;;;;;;;;;;;;15.09;61.34;98320.48;1576458;90;20302;-86
2021/09/11 05:35:54;;;;;;;;;;;;;;;15.14;61.35;98320.06;1568996;90;20282;-86
2021/09/11 05:38:24;;;;;;;;;;;;;;;15.18;61.34;98321.44;1574592;91;22000;-85
2021/09/11 05:40:50;;;;;;;;;;;;;;;15.21;61.29;98317.23;1601102;88;25979;-85
2021/09/11 05:43:16;;;;;;;;;;;;;;;15.27;61.31;98324.11;1574615;91;24401;-85
2021/09/11 05:45:42;;;;;;;;;;;;;;;15.33;61.32;98324.84;1597053;88;20202;-85
2021/09/11 05:48:08;;;;;;;;;;;;;;;15.40;61.32;98321.16;1572323;90;20773;-85
2021/09/11 05:50:34;;;;;;;;;;;;;;;15.43;61.31;98323.05;1597308;89;22062;-85
2021/09/11 05:53:00;;;;;;;;;;;;;;;15.46;61.28;98323.24;1571674;91;21005;-85
2021/09/11 05:55:26;;;;;;;;;;;;;;;15.53;61.23;98328.83;1598150;88;24513;-85
2021/09/11 05:57:52;;;;;;;;;;;;;;;15.58;61.25;98326.11;1574597;90;20876;-86
2021/09/11 06:00:18;;;;;;;;;;;;;;;15.65;61.26;98325.91;1601664;89;20752;-86
2021/09/11 06:02:44;;;;;;;;;;;;;;;15.73;61.28;98321.22;1574872;90;21974;-86
2021/09/11 06:05:10;;;;;;;;;;;;;;;15.76;61.23;98323.59;1601547;89;26079;-86
2021/09/11 06:07:44;;;;;;;;;;;;;;;15.81;61.21;98322.67;1574944;90;25069;-85
2021/09/11 06:10:14;;;;;;;;;;;;;;;15.85;61.13;98323.56;1577140;89;20236;-86
2021/09/11 06:12:40;;;;;;;;;;;;;;;15.90;61.06;98320.48;1563285;89;24801;-86
2021/09/11 06:15:13;;;;;;;;;;;;;;;15.95;61.07;98319.56;1604853;89;20953;-86
2021/09/11 06:17:43;;;;;;;;;;;;;;;16.01;61.08;98322.95;1600616;89;25975;-86
2021/09/11 06:20:18;;;;;;;;;;;;;;;16.06;61.05;98322.03;1604321;89;24544;-86
2021/09/11 06:22:44;;;;;;;;;;;;;;;16.14;61.01;98326.13;1590787;89;20235;-87
2021/09/11 06:25:11;;;;;;;;;;;;;;;16.21;61.01;98327.19;1601739;89;20900;-86
2021/09/11 06:27:37;;;;;;;;;;;;;;;16.29;61.02;98327.80;1575497;91;22165;-86
2021/09/11 06:30:10;;;;;;;;;;;;;;;16.35;61.04;98324.57;1601178;89;20983;-85
2021/09/11 06:32:36;;;;;;;;;;;;;;;16.38;61.00;98330.03;1574925;90;24684;-84
2021/09/11 06:35:04;;;;;;;;;;;;;;;16.45;60.98;98323.20;1601665;88;20641;-84
2021/09/11 06:37:34;;;;;;;;;;;;;;;16.52;61.04;98325.13;1574753;90;24817;-84
2021/09/11 06:40:00;;;;;;;;;;;;;;;16.60;61.07;98323.08;1598537;89;22959;-84
2021/09/11 06:42:26;;;;;;;;;;;;;;;16.68;61.06;98324.02;1574643;90;26124;-85
2021/09/11 06:44:52;;;;;;;;;;;;;;;16.76;61.04;98325.90;1601876;88;20850;-84
2021/09/11 06:47:18;;;;;;;;;;;;;;;16.85;61.03;98325.52;1574689;90;20391;-84
2021/09/11 06:49:44;;;;;;;;;;;;;;;16.92;61.03;98326.56;1575433;90;20351;-85
2021/09/11 06:52:10;;;;;;;;;;;;;;;17.02;60.99;98330.00;1601997;88;20294;-84
2021/09/11 06:54:37;;;;;;;;;;;;;;;17.11;60.90;98327.77;1601314;88;26179;-84
2021/09/11 06:57:08;;;;;;;;;;;;;;;17.17;60.89;98331.62;1569342;90;25556;-84
2021/09/11 06:59:44;;;;;;;;;;;;;;;17.24;60.84;98333.48;1588497;89;20241;-84
2021/09/11 07:02:17;;;;;;;;;;;;;;;17.30;60.81;98336.02;1593557;89;26124;-84
2021/09/11 07:04:49;;;;;;;;;;;;;;;17.35;60.76;98337.72;1575167;89;22721;-85
2021/09/11 07:07:17;;;;;;;;;;;;;;;17.44;60.75;98338.15;1601207;88;26049;-85
2021/09/11 07:09:43;;;;;;;;;;;;;;;17.54;60.71;98337.56;1577938;90;24531;-85
2021/09/11 07:12:11;;;;;;;;;;;;;;;17.63;60.66;98337.99;1605530;88;20345;-84
2021/09/11 07:14:37;;;;;;;;;;;;;;;17.72;60.62;98340.23;1579042;90;24863;-85
2021/09/11 07:17:03;;;;;;;;;;;;;;;17.79;60.61;98340.76;1605394;89;20773;-84
2021/09/11 07:19:29;;;;;;;;;;;;;;;17.87;60.58;98340.00;1579170;90;26156;-84
2021/09/11 07:21:56;;;;;;;;;;;;;;;17.96;60.51;98332.44;1605061;88;20941;-84
2021/09/11 07:24:27;;;;;;;;;;;;;;;18.08;60.46;98341.78;1579056;90;20606;-84
2021/09/11 07:26:53;;;;;;;;;;;;;;;18.18;60.43;98337.20;1605221;88;24760;-84
2021/09/11 07:29:19;;;;;;;;;;;;;;;18.30;60.33;98341.74;1561672;90;20234;-84
2021/09/11 07:31:45;;;;;;;;;;;;;;;18.40;60.29;98347.26;1605667;88;26055;-84
2021/09/11 07:34:11;;;;;;;;;;;;;;;18.50;60.23;98339.18;1573947;90;24517;-84
2021/09/11 07:36:37;;;;;;;;;;;;;;;18.60;60.19;98338.58;1605816;88;20312;-85
2021/09/11 07:39:03;;;;;;;;;;;;;;;18.68;60.17;98337.80;1580369;89;24815;-84
2021/09/11 07:41:29;;;;;;;;;;;;;;;18.76;60.11;98345.27;1603736;88;22027;-84
2021/09/11 07:43:55;;;;;;;;;;;;;;;18.89;60.08;98343.98;1559347;90;21097;-84
2021/09/11 07:46:21;;;;;;;;;;;;;;;18.99;59.99;98348.16;1606446;88;24485;-86
2021/09/11 07:48:47;;;;;;;;;;;;;;;19.08;59.94;98346.37;1578533;90;20876;-86
2021/09/11 07:51:13;;;;;;;;;;;;;;;19.18;59.89;98343.91;1604920;89;20745;-86
2021/09/11 07:53:41;;;;;;;;;;;;;;;19.29;59.83;98343.25;1579278;89;22480;-85
2021/09/11 07:56:08;;;;;;;;;;;;;;;19.36;59.77;98343.77;1607522;88;26063;-85
2021/09/11 07:58:35;;;;;;;;;;;;;;;19.48;59.67;98345.61;1580098;89;24428;-85
2021/09/11 08:01:01;;;;;;;;;;;;;;;19.60;59.55;98342.96;1605295;88;20460;-85
2021/09/11 08:03:28;;;;;;;;;;;;;;;19.72;59.36;98350.93;1578736;90;20267;-85
2021/09/11 08:05:55;;;;;;;;;;;;;;;19.81;59.21;98350.41;1605271;88;22250;-85
2021/09/11 08:08:29;;;;;;;;;;;;;;;19.90;59.14;98351.59;1566031;88;21496;-85
2021/09/11 08:10:55;;;;;;;;;;;;;;;19.98;58.98;98352.06;1568424;90;24517;-85
2021/09/11 08:13:21;;;;;;;;;;;;;;;20.08;58.70;98347.39;1571671;90;20287;-85
2021/09/11 08:15:47;;;;;;;;;;;;;;;20.18;58.49;98346.73;1569318;90;24889;-85
2021/09/11 08:18:13;;;;;;;;;;;;;;;20.28;58.39;98347.36;1571323;90;21960;-85
2021/09/11 08:20:39;;;;;;;;;;;;;;;20.37;58.20;98348.19;1572277;90;21011;-85
2021/09/11 08:23:06;;;;;;;;;;;;;;;20.46;58.04;98340.50;1569809;90;24607;-85
2021/09/11 08:25:32;;;;;;;;;;;;;;;20.54;57.81;98339.16;1570074;90;20338;-85
2021/09/11 08:27:59;;;;;;;;;;;;;;;20.61;57.61;98337.48;1568801;90;24742;-84
2021/09/11 08:30:25;;;;;;;;;;;;;;;20.65;57.35;98336.12;1564009;90;22088;-86
2021/09/11 08:32:51;;;;;;;;;;;;;;;20.70;57.14;98341.75;1572271;90;26027;-85
2021/09/11 08:35:17;;;;;;;;;;;;;;;20.81;57.02;98337.88;1564136;90;24408;-86
2021/09/11 08:37:44;;;;;;;;;;;;;;;20.90;56.94;98344.80;1569437;90;20877;-86
2021/09/11 08:40:11;;;;;;;;;;;;;;;20.97;56.87;98340.45;1571381;90;24985;-86
2021/09/11 08:42:37;;;;;;;;;;;;;;;21.05;56.75;98339.09;1564183;90;22061;-86
2021/09/11 08:45:03;;;;;;;;;;;;;;;21.12;56.52;98346.67;1569379;90;21049;-86
2021/09/11 08:47:29;;;;;;;;;;;;;;;21.20;56.32;98344.00;1563940;90;24427;-86
2021/09/11 08:49:55;;;;;;;;;;;;;;;21.29;56.13;98341.61;1563023;90;20341;-86
2021/09/11 08:52:21;;;;;;;;;;;;;;;21.39;55.97;98337.87;1563250;90;20466;-86
2021/09/11 08:54:47;;;;;;;;;;;;;;;21.46;55.82;98336.98;1569401;90;22135;-86
2021/09/11 08:57:23;;;;;;;;;;;;;;;21.55;55.73;98338.58;1561914;90;26015;-86
2021/09/11 09:00:02;;;;;;;;;;;;;;;21.64;55.52;98334.03;1563734;90;24190;-88
2021/09/11 09:02:31;;;;;;;;;;;;;;;21.69;55.27;98337.81;1567734;90;20237;-87
2021/09/11 09:04:59;;;;;;;;;;;;;;;21.74;54.93;98333.77;1560437;90;24879;-87
2021/09/11 09:07:41;;;;;;;;;;;;;;;21.80;54.78;98333.05;1565814;90;22204;-87
2021/09/11 09:10:11;;;;;;;;;;;;;;;21.85;54.61;98327.51;1567549;89;22342;-87
2021/09/11 09:12:39;;;;;;;;;;;;;;;21.90;54.42;98331.78;1569458;89;24458;-87
2021/09/11 09:15:09;;;;;;;;;;;;;;;21.97;54.20;98336.75;1591909;88;20229;-87
2021/09/11 09:17:43;;;;;;;;;;;;;;;22.00;54.04;98337.71;1588813;88;27154;-87
2021/09/11 09:20:11;;;;;;;;;;;;;;;22.03;53.99;98326.70;1578513;88;22077;-87
2021/09/11 09:22:37;;;;;;;;;;;;;;;22.08;53.86;98330.98;1588109;88;26014;-87
2021/09/11 09:25:03;;;;;;;;;;;;;;;22.14;53.74;98329.42;1582625;88;20326;-87
2021/09/11 09:27:29;;;;;;;;;;;;;;;22.20;53.56;98321.20;1587407;88;20366;-87
2021/09/11 09:29:56;;;;;;;;;;;;;;;22.26;53.42;98333.77;1592247;89;25382;-87
2021/09/11 09:32:24;;;;;;;;;;;;;;;22.30;53.26;98329.75;1590099;89;21987;-87
2021/09/11 09:34:50;;;;;;;;;;;;;;;22.32;53.08;98321.04;1594192;89;26028;-87
2021/09/11 09:37:18;;;;;;;;;;;;;;;22.38;52.85;98322.98;1596196;89;24587;-87
2021/09/11 09:39:49;;;;;;;;;;;;;;;22.42;52.62;98322.41;1588214;89;20231;-87
2021/09/11 09:42:17;;;;;;;;;;;;;;;22.49;52.44;98325.17;1603316;89;25000;-87
2021/09/11 09:44:47;;;;;;;;;;;;;;;22.57;52.33;98324.27;1604571;89;22702;-87
2021/09/11 09:47:16;;;;;;;;;;;;;;;22.60;52.13;98315.87;1620879;87;21826;-87
2021/09/11 09:49:47;;;;;;;;;;;;;;;22.61;51.77;98317.03;1583971;89;24417;-87
2021/09/11 09:52:13;;;;;;;;;;;;;;;22.67;51.55;98318.96;1564043;89;20248;-87
2021/09/11 09:54:39;;;;;;;;;;;;;;;22.72;51.42;98316.59;1582668;89;20354;-87
2021/09/11 09:57:07;;;;;;;;;;;;;;;22.78;51.21;98326.52;1579008;89;22069;-87
2021/09/11 09:59:35;;;;;;;;;;;;;;;22.84;51.08;98321.77;1580819;89;26114;-87
2021/09/11 10:02:01;;;;;;;;;;;;;;;22.89;50.87;98328.70;1583393;89;25250;-87
2021/09/11 10:04:27;;;;;;;;;;;;;;;22.97;50.75;98326.92;1567553;90;20267;-87
2021/09/11 10:06:55;;;;;;;;;;;;;;;23.01;50.60;98326.88;1593375;89;20280;-87
2021/09/11 10:09:23;;;;;;;;;;;;;;;23.05;50.42;98322.81;1571256;90;22191;-88
2021/09/11 10:11:51;;;;;;;;;;;;;;;23.10;50.24;98326.57;1590717;88;26178;-88
2021/09/11 10:14:23;;;;;;;;;;;;;;;23.13;49.96;98324.84;1565314;90;24529;-89
2021/09/11 10:16:59;;;;;;;;;;;;;;;23.18;49.76;98322.97;1575749;89;20281;-88
2021/09/11 10:19:26;;;;;;;;;;;;;;;23.24;49.47;98323.52;1569145;89;25389;-87
2021/09/11 10:22:06;;;;;;;;;;;;;;;23.32;49.39;98323.41;1594225;89;22062;-88
2021/09/11 10:24:33;;;;;;;;;;;;;;;23.37;49.28;98323.66;1568506;90;26269;-88
2021/09/11 10:27:02;;;;;;;;;;;;;;;23.42;49.14;98320.41;1601720;88;25222;-88
2021/09/11 10:29:36;;;;;;;;;;;;;;;23.46;49.00;98323.87;1569629;90;20241;-88
2021/09/11 10:32:16;;;;;;;;;;;;;;;23.52;48.80;98320.44;1592553;88;24752;-88
2021/09/11 10:35:02;;;;;;;;;;;;;;;23.56;48.61;98317.72;1564595;90;22069;-88
2021/09/11 10:37:44;;;;;;;;;;;;;;;23.61;48.46;98319.81;1592863;88;26008;-88
2021/09/11 10:40:27;;;;;;;;;;;;;;;23.65;48.37;98313.89;1564501;90;24514;-87
2021/09/11 10:43:12;;;;;;;;;;;;;;;23.71;48.27;98318.97;1591836;88;20213;-87
2021/09/11 10:45:39;;;;;;;;;;;;;;;23.75;48.11;98313.04;1569602;89;25467;-86
2021/09/11 10:48:26;;;;;;;;;;;;;;;23.82;47.92;98317.11;1573458;89;20216;-87
2021/09/11 10:50:52;;;;;;;;;;;;;;;23.85;47.56;98323.89;1568916;89;25991;-87
2021/09/11 10:53:19;;;;;;;;;;;;;;;23.87;47.31;98313.84;1571586;90;24446;-87
2021/09/11 10:55:47;;;;;;;;;;;;;;;23.87;47.00;98316.52;1596786;88;20287;-86
2021/09/11 10:58:23;;;;;;;;;;;;;;;23.87;46.73;98312.00;1561709;89;25529;-87
2021/09/11 11:01:01;;;;;;;;;;;;;;;23.95;46.67;98307.00;1592486;88;21971;-87
2021/09/11 11:03:27;;;;;;;;;;;;;;;24.02;46.42;98302.03;1575311;89;26174;-87
2021/09/11 11:06:03;;;;;;;;;;;;;;;24.12;46.24;98305.69;1582540;89;24692;-87
2021/09/11 11:08:29;;;;;;;;;;;;;;;24.15;46.10;98304.80;1579498;89;20698;-86
2021/09/11 11:10:55;;;;;;;;;;;;;;;24.17;45.92;98298.76;1549918;91;24848;-85
2021/09/11 11:13:22;;;;;;;;;;;;;;;24.20;45.82;98300.22;1547163;91;22790;-85
2021/09/11 11:15:56;;;;;;;;;;;;;;;24.24;45.57;98300.65;1544254;91;26205;-85
2021/09/11 11:18:24;;;;;;;;;;;;;;;24.22;45.26;98303.52;1558767;91;25167;-86
2021/09/11 11:20:50;;;;;;;;;;;;;;;24.28;45.22;98300.56;1551121;91;20165;-85
2021/09/11 11:23:16;;;;;;;;;;;;;;;24.31;45.23;98299.67;1564730;91;20291;-86
2021/09/11 11:25:42;;;;;;;;;;;;;;;24.37;45.15;98298.89;1563832;91;21949;-86
2021/09/11 11:28:09;;;;;;;;;;;;;;;24.38;44.89;98296.53;1565921;91;21068;-85
2021/09/11 11:30:36;;;;;;;;;;;;;;;24.44;44.68;98297.05;1552050;91;23929;-90
2021/09/11 11:33:05;;;;;;;;;;;;;;;24.46;44.48;98293.67;1570000;91;20500;-86
2021/09/11 11:35:32;;;;;;;;;;;;;;;24.50;44.42;98293.58;1563842;91;24748;-86
2021/09/11 11:37:58;;;;;;;;;;;;;;;24.57;44.37;98287.76;1566223;91;22047;-86
2021/09/11 11:40:25;;;;;;;;;;;;;;;24.63;44.19;98285.31;1568035;91;26053;-86
2021/09/11 11:42:57;;;;;;;;;;;;;;;24.69;44.00;98280.49;1568896;91;24655;-85
2021/09/11 11:45:25;;;;;;;;;;;;;;;24.71;43.86;98281.13;1563773;91;20336;-86
2021/09/11 11:47:59;;;;;;;;;;;;;;;24.76;43.77;98273.32;1560819;91;24848;-85
2021/09/11 11:50:31;;;;;;;;;;;;;;;24.79;43.64;98277.75;1565707;90;21963;-85
2021/09/11 11:53:08;;;;;;;;;;;;;;;24.81;43.50;98273.03;1570579;90;25975;-85
2021/09/11 11:55:36;;;;;;;;;;;;;;;24.87;43.50;98273.56;1583002;90;25208;-85
2021/09/11 11:58:10;;;;;;;;;;;;;;;24.91;43.43;98276.18;1583002;90;20364;-86
2021/09/11 12:00:46;;;;;;;;;;;;;;;24.99;43.42;98276.48;1572788;90;24891;-86
2021/09/11 12:03:14;;;;;;;;;;;;;;;25.04;43.31;98270.55;1572514;90;22242;-86
2021/09/11 12:05:42;;;;;;;;;;;;;;;25.09;43.26;98274.78;1574957;90;26001;-85
2021/09/11 12:08:10;;;;;;;;;;;;;;;25.17;43.15;98275.91;1577883;90;24621;-85
2021/09/11 12:10:36;;;;;;;;;;;;;;;25.23;43.07;98273.25;1572885;90;20258;-85
2021/09/11 12:13:07;;;;;;;;;;;;;;;25.26;42.90;98271.48;1569414;90;24673;-85
2021/09/11 12:15:37;;;;;;;;;;;;;;;25.26;42.71;98263.45;1575617;90;22947;-86
2021/09/11 12:18:10;;;;;;;;;;;;;;;25.23;42.52;98271.91;1575568;90;26076;-86
2021/09/11 12:20:41;;;;;;;;;;;;;;;25.28;42.37;98267.27;1573006;91;24533;-86
2021/09/11 12:23:14;;;;;;;;;;;;;;;25.29;42.36;98267.08;1551475;91;20293;-86
2021/09/11 12:25:54;;;;;;;;;;;;;;;25.32;42.37;98268.00;1575812;90;25799;-85
2021/09/11 12:28:31;;;;;;;;;;;;;;;25.30;42.29;98263.37;1570352;91;22113;-85
2021/09/11 12:30:58;;;;;;;;;;;;;;;25.31;42.18;98257.51;1575109;90;26497;-85
2021/09/11 12:33:25;;;;;;;;;;;;;;;25.31;42.09;98262.33;1575216;90;24700;-85
2021/09/11 12:35:51;;;;;;;;;;;;;;;25.30;41.98;98251.83;1575705;90;20199;-85
2021/09/11 12:38:17;;;;;;;;;;;;;;;25.33;41.88;98248.73;1574039;91;24814;-85
2021/09/11 12:40:43;;;;;;;;;;;;;;;25.35;41.80;98249.36;1574631;89;21958;-84
2021/09/11 12:43:11;;;;;;;;;;;;;;;25.37;41.69;98245.43;1575916;91;26139;-84
2021/09/11 12:45:40;;;;;;;;;;;;;;;25.41;41.74;98245.86;1576190;90;24498;-85
2021/09/11 12:48:06;;;;;;;;;;;;;;;25.47;41.77;98244.22;1573448;90;20345;-84
2021/09/11 12:50:32;;;;;;;;;;;;;;;25.51;41.87;98245.44;1568809;91;24735;-84
2021/09/11 12:52:58;;;;;;;;;;;;;;;25.54;41.85;98247.19;1575701;90;21931;-84
2021/09/11 12:55:25;;;;;;;;;;;;;;;25.54;41.51;98243.16;1570722;91;21101;-84